Argyle, Missouri
Current Conditions -  °F | °C
As of 8:53 PM on Sunday 28 Dec 2014 (Local Time) from KVIH Reporting Station
Clear Clear  
Wind Chill: -4°   Ceiling: Unl
Heat Index: -4°   Visibility: 10mi
Dew Point: -6°   Wind: 3mph
Humidity: 85%   Direction: 90°E
Pressure: 30.18"   Gusts: NA
Location:  38.29°N, 92.03°W
Report Text: KVIH 290253Z AUTO 09003KT 10SM CLR M04/M06 A3018 RMK AO2 SLP232 T10391061 53008 $
Loading
Personal Weather Stations






























Interactive Weather Map New forecast layout! Learn more

10-Day Weather Forecast

Advertisements
Track Severe Weather on mobile